createdAt,value
2022-08-03T00:03:37.729Z,1.45
2022-08-03T00:13:40.928Z,1.60
2022-08-03T00:23:51.376Z,2.10
2022-08-03T00:33:58.090Z,1.98
2022-08-03T00:44:04.554Z,2.22
2022-08-03T00:54:07.741Z,2.00
2022-08-03T01:04:12.230Z,2.03
2022-08-03T01:14:22.502Z,1.75
2022-08-03T01:24:38.119Z,1.95
2022-08-03T01:35:06.953Z,2.08
2022-08-03T01:45:12.484Z,2.50
2022-08-03T01:55:18.948Z,2.00
2022-08-03T02:05:22.522Z,2.30
2022-08-03T02:15:28.178Z,1.87
2022-08-03T02:25:31.885Z,2.30
2022-08-03T02:35:37.315Z,2.10
2022-08-03T02:45:45.705Z,2.30
2022-08-03T02:55:51.460Z,2.45
2022-08-03T03:05:57.639Z,2.22
2022-08-03T03:16:04.871Z,2.47
2022-08-03T03:26:08.911Z,2.40
2022-08-03T03:36:13.539Z,2.30
2022-08-03T03:46:16.954Z,2.17
2022-08-03T03:56:21.529Z,3.10
2022-08-03T04:06:42.340Z,2.47
2022-08-03T04:16:49.731Z,2.42
2022-08-03T04:26:53.060Z,2.80
2022-08-03T04:37:00.692Z,2.67
2022-08-03T04:47:04.302Z,3.30
2022-08-03T04:57:08.954Z,3.10
2022-08-03T05:07:13.209Z,3.15
2022-08-03T05:17:18.278Z,3.03
2022-08-03T05:27:21.642Z,3.55
2022-08-03T05:37:26.908Z,3.03
2022-08-03T05:47:30.248Z,3.30
2022-08-03T05:57:34.943Z,3.45
2022-08-03T06:07:38.653Z,3.70
2022-08-03T06:17:48.774Z,3.75
2022-08-03T06:27:52.581Z,3.53
2022-08-03T06:37:57.152Z,3.53
2022-08-03T06:48:02.071Z,3.70
2022-08-03T06:58:06.875Z,3.85
2022-08-03T07:08:10.498Z,3.92
2022-08-03T07:18:15.016Z,3.80
2022-08-03T07:28:18.280Z,3.58
2022-08-03T07:38:22.901Z,3.80
2022-08-03T07:48:26.082Z,4.03
2022-08-03T07:58:30.739Z,3.72
2022-08-03T08:08:33.905Z,3.53
2022-08-03T08:18:38.521Z,3.67
2022-08-03T08:28:41.748Z,4.10
2022-08-03T08:38:46.354Z,3.60
2022-08-03T08:48:50.229Z,3.87
2022-08-03T08:58:59.126Z,3.75
2022-08-03T09:09:02.674Z,3.97
2022-08-03T09:19:15.035Z,3.58
2022-08-03T09:29:21.966Z,3.12
2022-08-03T09:39:41.295Z,3.20
2022-08-03T09:49:58.999Z,3.35
2022-08-03T10:00:12.360Z,3.10
2022-08-03T10:10:30.065Z,3.33
2022-08-03T10:20:39.025Z,3.00
2022-08-03T10:30:42.906Z,3.22
2022-08-03T10:40:50.475Z,2.97
2022-08-03T10:50:55.930Z,3.33
2022-08-03T11:01:00.551Z,3.30
2022-08-03T11:11:25.656Z,2.47
2022-08-03T11:22:08.518Z,2.42
2022-08-03T11:32:16.647Z,2.37
2022-08-03T11:42:48.076Z,2.30
2022-08-03T11:52:52.808Z,2.60
2022-08-03T12:03:00.532Z,2.08
2022-08-03T12:14:44.752Z,2.13
2022-08-03T12:23:34.851Z,2.10
2022-08-03T12:33:59.372Z,2.35
2022-08-03T12:44:04.470Z,2.65
2022-08-03T12:54:09.613Z,2.25
2022-08-03T13:04:27.559Z,2.00
2022-08-03T13:14:34.262Z,2.40
2022-08-03T13:24:37.448Z,2.17
2022-08-03T13:34:42.056Z,2.15
2022-08-03T13:44:45.265Z,2.30
2022-08-03T13:54:49.897Z,2.03
2022-08-03T14:04:54.691Z,2.15
2022-08-03T14:15:01.560Z,1.90
2022-08-03T14:25:09.776Z,1.90
2022-08-03T14:35:16.055Z,2.40
2022-08-03T14:45:20.085Z,1.70
2022-08-03T14:55:25.613Z,2.12
2022-08-03T15:05:41.462Z,2.40
2022-08-03T15:15:46.067Z,2.35
2022-08-03T15:26:32.398Z,2.08
2022-08-03T15:36:41.931Z,2.10
2022-08-03T15:46:45.122Z,2.40
2022-08-03T15:56:49.846Z,2.37
2022-08-03T16:06:53.110Z,2.45
2022-08-03T16:16:58.883Z,2.55
2022-08-03T16:27:02.326Z,2.22
2022-08-03T16:37:35.427Z,2.20
2022-08-03T16:47:32.533Z,2.20
2022-08-03T16:57:59.385Z,2.30
2022-08-03T17:08:04.338Z,2.50
2022-08-03T17:18:18.593Z,2.22
2022-08-03T17:28:49.098Z,2.25
2022-08-03T17:38:51.155Z,2.47
2022-08-03T17:48:56.960Z,2.80
2022-08-03T17:59:08.620Z,2.53
2022-08-03T18:10:04.045Z,2.90
2022-08-03T18:20:01.749Z,3.60
2022-08-03T18:30:01.764Z,2.95
2022-08-03T18:40:08.034Z,3.40
2022-08-03T18:50:19.068Z,3.22
2022-08-03T19:00:42.742Z,3.05
2022-08-03T19:10:57.831Z,3.25
2022-08-03T19:21:15.721Z,3.22
2022-08-03T19:31:19.183Z,3.30
2022-08-03T19:41:31.225Z,3.65
2022-08-03T19:52:01.337Z,3.87
2022-08-03T20:02:08.934Z,3.90
2022-08-03T20:12:27.958Z,3.47
2022-08-03T20:22:35.929Z,3.37
2022-08-03T20:32:42.594Z,3.33
2022-08-03T20:42:47.456Z,4.00
2022-08-03T20:52:50.908Z,3.80
2022-08-03T21:02:55.445Z,3.17
2022-08-03T21:23:34.976Z,3.97
2022-08-03T21:33:48.257Z,3.50
2022-08-03T21:43:52.945Z,4.43
2022-08-03T21:54:02.878Z,4.32
2022-08-03T22:04:11.863Z,4.28
2022-08-03T22:14:15.238Z,3.50
2022-08-03T22:24:24.033Z,4.30
2022-08-03T22:34:27.745Z,4.32
2022-08-03T22:44:33.036Z,3.78
2022-08-03T22:54:36.817Z,4.00
2022-08-03T23:04:42.625Z,4.45
2022-08-03T23:14:46.546Z,4.32
2022-08-03T23:24:51.379Z,4.57
2022-08-03T23:35:14.830Z,4.12
2022-08-03T23:45:21.149Z,3.12
2022-08-03T23:55:39.036Z,2.85
